sensor_id;sensor_type;location;lat;lon;timestamp;P1;P2;P0
76304;PMS7003;65111;50.536;19.204;2023-06-10T00:00:42;21.00;17.50;12.50
76304;PMS7003;65111;50.536;19.204;2023-06-10T00:03:09;23.00;20.00;15.50
76304;PMS7003;65111;50.536;19.204;2023-06-10T00:05:36;27.00;21.00;14.00
76304;PMS7003;65111;50.536;19.204;2023-06-10T00:08:04;19.00;17.00;10.67
76304;PMS7003;65111;50.536;19.204;2023-06-10T00:10:37;23.00;20.00;14.50
76304;PMS7003;65111;50.536;19.204;2023-06-10T00:13:04;27.00;23.00;15.50
76304;PMS7003;65111;50.536;19.204;2023-06-10T00:15:34;22.00;20.50;14.50
76304;PMS7003;65111;50.536;19.204;2023-06-10T00:18:01;22.00;22.00;16.00
76304;PMS7003;65111;50.536;19.204;2023-06-10T00:20:27;29.00;24.00;18.00
76304;PMS7003;65111;50.536;19.204;2023-06-10T00:22:53;29.00;26.00;17.00
76304;PMS7003;65111;50.536;19.204;2023-06-10T00:25:19;23.00;22.00;16.00
76304;PMS7003;65111;50.536;19.204;2023-06-10T00:27:45;26.00;21.00;18.00
76304;PMS7003;65111;50.536;19.204;2023-06-10T00:30:11;28.50;27.00;17.50
76304;PMS7003;65111;50.536;19.204;2023-06-10T00:32:37;28.67;28.33;17.33
76304;PMS7003;65111;50.536;19.204;2023-06-10T00:35:04;30.67;27.00;17.33
76304;PMS7003;65111;50.536;19.204;2023-06-10T00:37:32;30.00;26.00;20.00
76304;PMS7003;65111;50.536;19.204;2023-06-10T00:40:00;30.50;30.00;21.00
76304;PMS7003;65111;50.536;19.204;2023-06-10T00:42:27;35.00;28.67;20.67
76304;PMS7003;65111;50.536;19.204;2023-06-10T00:44:54;26.00;26.00;15.00
76304;PMS7003;65111;50.536;19.204;2023-06-10T00:47:20;26.33;26.33;19.33
76304;PMS7003;65111;50.536;19.204;2023-06-10T00:49:47;29.50;27.00;19.00
76304;PMS7003;65111;50.536;19.204;2023-06-10T00:52:15;25.00;24.33;19.67
76304;PMS7003;65111;50.536;19.204;2023-06-10T00:54:42;32.00;26.00;20.00
76304;PMS7003;65111;50.536;19.204;2023-06-10T00:57:09;30.50;27.00;18.50
76304;PMS7003;65111;50.536;19.204;2023-06-10T00:59:36;34.00;31.00;20.00
76304;PMS7003;65111;50.536;19.204;2023-06-10T01:02:03;30.00;29.00;17.00
76304;PMS7003;65111;50.536;19.204;2023-06-10T01:04:29;38.50;35.00;24.00
76304;PMS7003;65111;50.536;19.204;2023-06-10T01:12:40;27.00;27.00;20.50
76304;PMS7003;65111;50.536;19.204;2023-06-10T01:15:31;38.00;33.67;24.00
76304;PMS7003;65111;50.536;19.204;2023-06-10T01:18:10;33.00;33.00;23.00
76304;PMS7003;65111;50.536;19.204;2023-06-10T01:20:40;37.50;36.00;25.00
76304;PMS7003;65111;50.536;19.204;2023-06-10T01:23:09;30.33;26.33;18.33
76304;PMS7003;65111;50.536;19.204;2023-06-10T01:25:53;37.50;33.00;21.00
76304;PMS7003;65111;50.536;19.204;2023-06-10T01:28:36;34.00;32.00;24.00
76304;PMS7003;65111;50.536;19.204;2023-06-10T01:31:28;34.50;31.00;20.00
76304;PMS7003;65111;50.536;19.204;2023-06-10T01:34:03;39.00;34.00;23.00
76304;PMS7003;65111;50.536;19.204;2023-06-10T01:36:34;39.00;36.50;19.50
76304;PMS7003;65111;50.536;19.204;2023-06-10T01:39:02;35.33;33.00;21.33
76304;PMS7003;65111;50.536;19.204;2023-06-10T01:41:31;37.50;32.50;23.00
76304;PMS7003;65111;50.536;19.204;2023-06-10T01:43:58;33.00;32.00;19.00
76304;PMS7003;65111;50.536;19.204;2023-06-10T01:46:24;39.00;34.00;21.50
76304;PMS7003;65111;50.536;19.204;2023-06-10T01:48:50;39.33;36.67;23.67
76304;PMS7003;65111;50.536;19.204;2023-06-10T01:51:16;33.67;33.00;23.33
76304;PMS7003;65111;50.536;19.204;2023-06-10T01:53:42;34.00;33.00;23.00
76304;PMS7003;65111;50.536;19.204;2023-06-10T01:56:08;41.00;38.00;20.50
76304;PMS7003;65111;50.536;19.204;2023-06-10T01:58:34;44.00;38.33;26.00
76304;PMS7003;65111;50.536;19.204;2023-06-10T02:00:59;44.00;39.00;27.00
76304;PMS7003;65111;50.536;19.204;2023-06-10T02:03:25;49.00;41.00;27.50
76304;PMS7003;65111;50.536;19.204;2023-06-10T02:05:51;37.50;35.50;23.50
76304;PMS7003;65111;50.536;19.204;2023-06-10T02:08:18;38.50;34.50;24.00
76304;PMS7003;65111;50.536;19.204;2023-06-10T02:10:43;42.00;37.50;23.50
76304;PMS7003;65111;50.536;19.204;2023-06-10T02:13:09;41.33;36.00;25.67
76304;PMS7003;65111;50.536;19.204;2023-06-10T02:15:35;39.00;34.67;22.33
76304;PMS7003;65111;50.536;19.204;2023-06-10T02:18:01;46.00;41.00;27.00
76304;PMS7003;65111;50.536;19.204;2023-06-10T02:20:27;34.33;32.00;23.33
76304;PMS7003;65111;50.536;19.204;2023-06-10T02:22:53;32.00;32.00;22.00
76304;PMS7003;65111;50.536;19.204;2023-06-10T02:25:19;33.00;28.00;21.00
76304;PMS7003;65111;50.536;19.204;2023-06-10T02:27:45;40.00;35.00;21.00
76304;PMS7003;65111;50.536;19.204;2023-06-10T02:30:11;33.00;27.50;20.00
76304;PMS7003;65111;50.536;19.204;2023-06-10T02:32:39;29.50;27.00;19.50
76304;PMS7003;65111;50.536;19.204;2023-06-10T02:35:05;28.00;23.00;17.00
76304;PMS7003;65111;50.536;19.204;2023-06-10T02:37:31;26.00;21.00;13.00
76304;PMS7003;65111;50.536;19.204;2023-06-10T02:39:57;26.50;23.00;15.00
76304;PMS7003;65111;50.536;19.204;2023-06-10T02:42:23;25.67;25.33;17.00
76304;PMS7003;65111;50.536;19.204;2023-06-10T02:44:49;33.50;31.00;20.50
76304;PMS7003;65111;50.536;19.204;2023-06-10T02:47:15;30.33;26.67;17.33
76304;PMS7003;65111;50.536;19.204;2023-06-10T02:49:41;27.00;26.00;18.00
76304;PMS7003;65111;50.536;19.204;2023-06-10T02:52:06;32.50;29.00;20.00
76304;PMS7003;65111;50.536;19.204;2023-06-10T02:54:33;31.00;28.00;20.00
76304;PMS7003;65111;50.536;19.204;2023-06-10T02:57:01;33.50;26.50;18.00
76304;PMS7003;65111;50.536;19.204;2023-06-10T02:59:27;31.00;28.00;20.00
76304;PMS7003;65111;50.536;19.204;2023-06-10T03:01:54;31.00;26.00;20.00
76304;PMS7003;65111;50.536;19.204;2023-06-10T03:04:20;33.00;27.00;17.50
76304;PMS7003;65111;50.536;19.204;2023-06-10T03:06:46;25.33;24.33;18.33
76304;PMS7003;65111;50.536;19.204;2023-06-10T03:09:12;28.00;28.00;19.50
76304;PMS7003;65111;50.536;19.204;2023-06-10T03:11:39;31.50;29.50;18.50
76304;PMS7003;65111;50.536;19.204;2023-06-10T03:14:04;27.33;25.67;18.00
76304;PMS7003;65111;50.536;19.204;2023-06-10T03:16:30;28.00;27.00;16.50
76304;PMS7003;65111;50.536;19.204;2023-06-10T03:18:56;29.00;25.00;16.00
76304;PMS7003;65111;50.536;19.204;2023-06-10T03:21:22;24.00;24.00;15.00
76304;PMS7003;65111;50.536;19.204;2023-06-10T03:23:48;26.50;22.50;15.50
76304;PMS7003;65111;50.536;19.204;2023-06-10T03:26:14;24.50;23.50;16.00
76304;PMS7003;65111;50.536;19.204;2023-06-10T03:28:41;22.00;21.00;16.00
76304;PMS7003;65111;50.536;19.204;2023-06-10T03:31:07;25.00;23.00;16.50
76304;PMS7003;65111;50.536;19.204;2023-06-10T03:33:33;23.00;23.00;14.67
76304;PMS7003;65111;50.536;19.204;2023-06-10T03:35:59;24.00;23.50;16.50
76304;PMS7003;65111;50.536;19.204;2023-06-10T03:38:25;29.50;23.50;17.00
76304;PMS7003;65111;50.536;19.204;2023-06-10T03:40:51;28.00;28.00;17.00
76304;PMS7003;65111;50.536;19.204;2023-06-10T03:43:17;29.00;26.67;18.33
76304;PMS7003;65111;50.536;19.204;2023-06-10T03:45:43;24.00;23.00;16.00
76304;PMS7003;65111;50.536;19.204;2023-06-10T03:48:09;23.00;23.00;17.00
76304;PMS7003;65111;50.536;19.204;2023-06-10T03:50:36;26.00;24.00;15.00
76304;PMS7003;65111;50.536;19.204;2023-06-10T03:53:02;28.00;24.00;18.00
76304;PMS7003;65111;50.536;19.204;2023-06-10T03:55:28;28.50;28.00;16.00
76304;PMS7003;65111;50.536;19.204;2023-06-10T03:57:54;28.00;26.00;21.00
76304;PMS7003;65111;50.536;19.204;2023-06-10T04:00:20;26.00;22.00;16.00
76304;PMS7003;65111;50.536;19.204;2023-06-10T04:02:47;28.00;26.00;17.00
76304;PMS7003;65111;50.536;19.204;2023-06-10T04:05:15;22.00;21.50;18.50
76304;PMS7003;65111;50.536;19.204;2023-06-10T04:07:42;31.00;27.00;17.00
76304;PMS7003;65111;50.536;19.204;2023-06-10T04:10:09;29.00;29.00;20.00
76304;PMS7003;65111;50.536;19.204;2023-06-10T04:12:37;26.50;26.50;19.50
76304;PMS7003;65111;50.536;19.204;2023-06-10T04:15:04;26.00;25.00;17.00
76304;PMS7003;65111;50.536;19.204;2023-06-10T04:19:56;30.00;27.00;17.00
76304;PMS7003;65111;50.536;19.204;2023-06-10T04:22:23;26.00;25.00;13.00
76304;PMS7003;65111;50.536;19.204;2023-06-10T04:24:49;27.00;27.00;18.00
76304;PMS7003;65111;50.536;19.204;2023-06-10T04:27:15;26.50;24.50;19.50
76304;PMS7003;65111;50.536;19.204;2023-06-10T04:29:41;25.00;23.50;16.00
76304;PMS7003;65111;50.536;19.204;2023-06-10T04:32:07;28.50;24.00;17.00
76304;PMS7003;65111;50.536;19.204;2023-06-10T04:34:33;29.00;26.67;18.33
76304;PMS7003;65111;50.536;19.204;2023-06-10T04:37:00;28.50;26.50;17.50
76304;PMS7003;65111;50.536;19.204;2023-06-10T04:39:26;22.00;22.00;17.50
76304;PMS7003;65111;50.536;19.204;2023-06-10T04:41:52;27.00;26.00;18.00
76304;PMS7003;65111;50.536;19.204;2023-06-10T04:44:18;22.33;22.33;16.00
76304;PMS7003;65111;50.536;19.204;2023-06-10T04:46:44;28.50;24.50;17.50
76304;PMS7003;65111;50.536;19.204;2023-06-10T04:49:11;26.00;25.50;18.50
76304;PMS7003;65111;50.536;19.204;2023-06-10T04:51:39;21.00;21.00;14.00
76304;PMS7003;65111;50.536;19.204;2023-06-10T04:54:05;21.00;21.00;16.00
76304;PMS7003;65111;50.536;19.204;2023-06-10T04:56:32;23.00;22.00;16.00
76304;PMS7003;65111;50.536;19.204;2023-06-10T04:58:58;24.33;22.00;14.00
76304;PMS7003;65111;50.536;19.204;2023-06-10T05:01:25;20.33;19.00;14.00
76304;PMS7003;65111;50.536;19.204;2023-06-10T05:03:53;20.00;20.00;14.00
76304;PMS7003;65111;50.536;19.204;2023-06-10T05:06:18;21.00;20.00;14.00
76304;PMS7003;65111;50.536;19.204;2023-06-10T05:08:44;18.00;16.00;12.00
76304;PMS7003;65111;50.536;19.204;2023-06-10T05:11:10;20.33;20.00;14.33
76304;PMS7003;65111;50.536;19.204;2023-06-10T05:13:36;19.50;16.50;13.50
76304;PMS7003;65111;50.536;19.204;2023-06-10T05:16:02;22.00;22.00;16.50
76304;PMS7003;65111;50.536;19.204;2023-06-10T05:18:29;22.50;21.00;14.00
76304;PMS7003;65111;50.536;19.204;2023-06-10T05:20:55;20.00;20.00;14.00
76304;PMS7003;65111;50.536;19.204;2023-06-10T05:23:20;21.00;19.50;14.50
76304;PMS7003;65111;50.536;19.204;2023-06-10T05:25:46;20.50;19.00;13.50
76304;PMS7003;65111;50.536;19.204;2023-06-10T05:28:13;23.00;23.00;17.00
76304;PMS7003;65111;50.536;19.204;2023-06-10T05:30:39;22.00;18.00;11.00
76304;PMS7003;65111;50.536;19.204;2023-06-10T05:33:05;25.00;21.67;14.00
76304;PMS7003;65111;50.536;19.204;2023-06-10T05:35:31;23.00;22.00;15.00
76304;PMS7003;65111;50.536;19.204;2023-06-10T05:37:57;17.00;16.50;13.00
76304;PMS7003;65111;50.536;19.204;2023-06-10T05:40:23;20.50;18.50;13.00
76304;PMS7003;65111;50.536;19.204;2023-06-10T05:42:49;21.00;19.00;13.00
76304;PMS7003;65111;50.536;19.204;2023-06-10T05:45:15;18.00;18.00;13.00
76304;PMS7003;65111;50.536;19.204;2023-06-10T05:47:41;17.50;17.50;12.00
76304;PMS7003;65111;50.536;19.204;2023-06-10T05:50:07;19.00;19.00;15.00
76304;PMS7003;65111;50.536;19.204;2023-06-10T05:52:34;17.00;16.00;13.00
76304;PMS7003;65111;50.536;19.204;2023-06-10T05:55:04;23.00;17.00;14.00
76304;PMS7003;65111;50.536;19.204;2023-06-10T05:57:31;18.67;18.00;13.00
76304;PMS7003;65111;50.536;19.204;2023-06-10T05:59:57;21.00;20.00;15.00
76304;PMS7003;65111;50.536;19.204;2023-06-10T06:02:22;19.33;17.33;11.67
76304;PMS7003;65111;50.536;19.204;2023-06-10T06:04:48;20.00;18.00;13.00
76304;PMS7003;65111;50.536;19.204;2023-06-10T06:07:14;17.00;17.00;13.50
76304;PMS7003;65111;50.536;19.204;2023-06-10T06:09:40;18.00;17.00;12.00
76304;PMS7003;65111;50.536;19.204;2023-06-10T06:12:07;13.50;13.00;10.00
76304;PMS7003;65111;50.536;19.204;2023-06-10T06:14:39;18.00;18.00;14.00
76304;PMS7003;65111;50.536;19.204;2023-06-10T06:17:06;23.00;20.00;14.00
76304;PMS7003;65111;50.536;19.204;2023-06-10T06:19:32;19.00;19.00;11.33
76304;PMS7003;65111;50.536;19.204;2023-06-10T06:21:58;19.50;18.50;13.50
76304;PMS7003;65111;50.536;19.204;2023-06-10T06:24:24;18.00;18.00;14.00
76304;PMS7003;65111;50.536;19.204;2023-06-10T06:26:50;19.00;19.00;14.00
76304;PMS7003;65111;50.536;19.204;2023-06-10T06:29:16;24.33;22.00;15.67
76304;PMS7003;65111;50.536;19.204;2023-06-10T06:31:42;20.67;19.00;15.33
76304;PMS7003;65111;50.536;19.204;2023-06-10T06:34:08;17.00;17.00;11.00
76304;PMS7003;65111;50.536;19.204;2023-06-10T06:36:33;21.00;20.00;16.00
76304;PMS7003;65111;50.536;19.204;2023-06-10T06:38:59;18.67;18.67;15.00
76304;PMS7003;65111;50.536;19.204;2023-06-10T06:41:28;22.00;22.00;15.50
76304;PMS7003;65111;50.536;19.204;2023-06-10T06:43:54;18.50;18.50;13.50
76304;PMS7003;65111;50.536;19.204;2023-06-10T06:46:21;23.67;21.00;15.33
76304;PMS7003;65111;50.536;19.204;2023-06-10T06:48:47;21.00;19.00;16.00
76304;PMS7003;65111;50.536;19.204;2023-06-10T06:51:13;19.00;18.50;14.00
76304;PMS7003;65111;50.536;19.204;2023-06-10T06:53:40;14.00;13.00;9.00
76304;PMS7003;65111;50.536;19.204;2023-06-10T06:56:11;22.00;19.50;13.50
76304;PMS7003;65111;50.536;19.204;2023-06-10T06:58:37;16.00;16.00;12.00
76304;PMS7003;65111;50.536;19.204;2023-06-10T07:01:03;20.00;20.00;14.00
76304;PMS7003;65111;50.536;19.204;2023-06-10T07:03:29;20.50;20.00;13.00
76304;PMS7003;65111;50.536;19.204;2023-06-10T07:05:55;22.33;20.33;15.67
76304;PMS7003;65111;50.536;19.204;2023-06-10T07:08:21;20.00;17.00;13.00
76304;PMS7003;65111;50.536;19.204;2023-06-10T07:10:47;20.00;20.00;13.50
76304;PMS7003;65111;50.536;19.204;2023-06-10T07:13:14;18.33;18.33;13.33
76304;PMS7003;65111;50.536;19.204;2023-06-10T07:15:40;19.00;19.00;13.00
76304;PMS7003;65111;50.536;19.204;2023-06-10T07:18:06;19.00;19.00;13.00
76304;PMS7003;65111;50.536;19.204;2023-06-10T07:20:32;22.00;21.33;15.00
76304;PMS7003;65111;50.536;19.204;2023-06-10T07:22:58;20.00;19.00;14.00
76304;PMS7003;65111;50.536;19.204;2023-06-10T07:25:24;14.00;13.00;10.00
76304;PMS7003;65111;50.536;19.204;2023-06-10T07:27:50;20.50;18.50;14.00
76304;PMS7003;65111;50.536;19.204;2023-06-10T07:30:16;18.50;18.00;13.50
76304;PMS7003;65111;50.536;19.204;2023-06-10T07:32:42;18.50;18.00;13.00
76304;PMS7003;65111;50.536;19.204;2023-06-10T07:35:09;18.00;18.00;14.00
76304;PMS7003;65111;50.536;19.204;2023-06-10T07:37:36;20.00;17.00;13.00
76304;PMS7003;65111;50.536;19.204;2023-06-10T07:40:03;20.00;19.33;15.00
76304;PMS7003;65111;50.536;19.204;2023-06-10T07:42:31;20.00;19.00;14.00
76304;PMS7003;65111;50.536;19.204;2023-06-10T07:45:00;20.50;18.50;13.00
76304;PMS7003;65111;50.536;19.204;2023-06-10T07:47:25;20.00;16.50;12.00
76304;PMS7003;65111;50.536;19.204;2023-06-10T07:49:51;24.00;23.33;16.00
76304;PMS7003;65111;50.536;19.204;2023-06-10T07:52:17;17.00;16.00;12.00
76304;PMS7003;65111;50.536;19.204;2023-06-10T07:54:43;17.00;16.00;11.67
76304;PMS7003;65111;50.536;19.204;2023-06-10T07:57:09;20.50;19.50;12.50
76304;PMS7003;65111;50.536;19.204;2023-06-10T07:59:35;18.50;18.00;14.00
76304;PMS7003;65111;50.536;19.204;2023-06-10T08:02:01;20.50;20.00;13.00
76304;PMS7003;65111;50.536;19.204;2023-06-10T08:04:27;24.00;21.00;14.00
76304;PMS7003;65111;50.536;19.204;2023-06-10T08:06:53;19.00;17.50;11.00
76304;PMS7003;65111;50.536;19.204;2023-06-10T08:09:19;17.00;16.00;11.00
76304;PMS7003;65111;50.536;19.204;2023-06-10T08:11:46;19.00;16.00;12.00
76304;PMS7003;65111;50.536;19.204;2023-06-10T08:14:13;17.00;17.00;12.50
76304;PMS7003;65111;50.536;19.204;2023-06-10T08:16:39;20.00;20.00;14.00
76304;PMS7003;65111;50.536;19.204;2023-06-10T08:19:04;19.00;17.00;14.00
76304;PMS7003;65111;50.536;19.204;2023-06-10T08:21:31;15.00;14.00;9.00
76304;PMS7003;65111;50.536;19.204;2023-06-10T08:23:57;16.50;16.50;12.00
76304;PMS7003;65111;50.536;19.204;2023-06-10T08:26:23;21.00;20.00;14.00
76304;PMS7003;65111;50.536;19.204;2023-06-10T08:28:50;19.33;17.67;13.00
76304;PMS7003;65111;50.536;19.204;2023-06-10T08:31:15;16.50;16.50;11.00
76304;PMS7003;65111;50.536;19.204;2023-06-10T08:33:42;18.00;16.00;13.00
76304;PMS7003;65111;50.536;19.204;2023-06-10T08:36:08;14.00;14.00;11.00
76304;PMS7003;65111;50.536;19.204;2023-06-10T08:38:34;15.00;15.00;10.00
76304;PMS7003;65111;50.536;19.204;2023-06-10T08:41:00;15.00;15.00;10.00
76304;PMS7003;65111;50.536;19.204;2023-06-10T08:43:32;16.00;15.50;12.00
76304;PMS7003;65111;50.536;19.204;2023-06-10T08:46:03;16.00;16.00;12.50
76304;PMS7003;65111;50.536;19.204;2023-06-10T08:48:29;21.00;19.00;14.50
76304;PMS7003;65111;50.536;19.204;2023-06-10T08:50:57;19.00;17.00;11.00
76304;PMS7003;65111;50.536;19.204;2023-06-10T08:53:24;18.00;17.00;13.33
76304;PMS7003;65111;50.536;19.204;2023-06-10T08:55:51;19.00;18.50;13.50
76304;PMS7003;65111;50.536;19.204;2023-06-10T08:58:18;15.00;15.00;10.00
76304;PMS7003;65111;50.536;19.204;2023-06-10T09:00:46;17.00;16.00;12.00
76304;PMS7003;65111;50.536;19.204;2023-06-10T09:03:12;15.00;13.00;9.00
76304;PMS7003;65111;50.536;19.204;2023-06-10T09:05:38;18.00;16.00;11.00
76304;PMS7003;65111;50.536;19.204;2023-06-10T09:08:07;17.00;17.00;14.00
76304;PMS7003;65111;50.536;19.204;2023-06-10T09:10:34;16.00;14.00;11.00
76304;PMS7003;65111;50.536;19.204;2023-06-10T09:13:01;19.00;18.00;12.00
76304;PMS7003;65111;50.536;19.204;2023-06-10T09:15:27;14.00;14.00;10.00
76304;PMS7003;65111;50.536;19.204;2023-06-10T09:17:53;14.00;14.00;11.00
76304;PMS7003;65111;50.536;19.204;2023-06-10T09:20:19;17.00;17.00;12.67
76304;PMS7003;65111;50.536;19.204;2023-06-10T09:22:45;21.00;21.00;13.00
76304;PMS7003;65111;50.536;19.204;2023-06-10T09:25:11;12.00;11.50;8.50
76304;PMS7003;65111;50.536;19.204;2023-06-10T09:27:48;13.00;13.00;10.00
76304;PMS7003;65111;50.536;19.204;2023-06-10T09:31:00;11.50;11.50;9.00
76304;PMS7003;65111;50.536;19.204;2023-06-10T09:33:14;10.00;10.00;8.50
76304;PMS7003;65111;50.536;19.204;2023-06-10T09:35:45;13.00;11.00;9.00
76304;PMS7003;65111;50.536;19.204;2023-06-10T09:38:13;12.00;10.00;8.50
76304;PMS7003;65111;50.536;19.204;2023-06-10T09:40:48;10.00;10.00;8.00
76304;PMS7003;65111;50.536;19.204;2023-06-10T09:43:16;8.00;7.00;6.00
76304;PMS7003;65111;50.536;19.204;2023-06-10T09:45:42;10.50;10.00;8.50
76304;PMS7003;65111;50.536;19.204;2023-06-10T09:48:09;11.00;11.00;9.00
76304;PMS7003;65111;50.536;19.204;2023-06-10T09:50:37;10.00;10.00;8.00
76304;PMS7003;65111;50.536;19.204;2023-06-10T09:53:08;11.00;11.00;10.00
76304;PMS7003;65111;50.536;19.204;2023-06-10T09:55:38;11.00;10.00;9.00
76304;PMS7003;65111;50.536;19.204;2023-06-10T09:58:05;11.00;10.00;8.00
76304;PMS7003;65111;50.536;19.204;2023-06-10T10:00:34;7.50;7.50;6.00
76304;PMS7003;65111;50.536;19.204;2023-06-10T10:03:00;9.00;8.00;7.00
76304;PMS7003;65111;50.536;19.204;2023-06-10T10:05:27;11.00;11.00;8.00
76304;PMS7003;65111;50.536;19.204;2023-06-10T10:07:53;12.00;8.00;7.00
76304;PMS7003;65111;50.536;19.204;2023-06-10T10:10:19;10.00;10.00;8.00
76304;PMS7003;65111;50.536;19.204;2023-06-10T10:12:47;9.00;9.00;8.00
76304;PMS7003;65111;50.536;19.204;2023-06-10T10:15:14;12.50;11.00;9.50
76304;PMS7003;65111;50.536;19.204;2023-06-10T10:17:44;8.00;8.00;5.00
76304;PMS7003;65111;50.536;19.204;2023-06-10T10:20:19;11.00;11.00;9.00
76304;PMS7003;65111;50.536;19.204;2023-06-10T10:22:49;12.00;12.00;10.00
76304;PMS7003;65111;50.536;19.204;2023-06-10T10:25:35;11.00;11.00;9.00
76304;PMS7003;65111;50.536;19.204;2023-06-10T10:28:10;12.50;12.50;8.50
76304;PMS7003;65111;50.536;19.204;2023-06-10T10:30:39;9.00;9.00;7.00
76304;PMS7003;65111;50.536;19.204;2023-06-10T10:33:12;12.00;10.00;8.50
76304;PMS7003;65111;50.536;19.204;2023-06-10T10:35:41;16.00;16.00;12.00
76304;PMS7003;65111;50.536;19.204;2023-06-10T10:38:08;9.00;9.00;7.00
76304;PMS7003;65111;50.536;19.204;2023-06-10T10:40:35;9.00;9.00;8.00
76304;PMS7003;65111;50.536;19.204;2023-06-10T10:43:02;14.00;14.00;11.00
76304;PMS7003;65111;50.536;19.204;2023-06-10T10:45:29;11.50;11.00;9.00
76304;PMS7003;65111;50.536;19.204;2023-06-10T10:47:55;13.00;12.00;9.50
76304;PMS7003;65111;50.536;19.204;2023-06-10T10:50:22;15.00;14.00;11.00
76304;PMS7003;65111;50.536;19.204;2023-06-10T10:52:55;13.00;13.00;9.00
76304;PMS7003;65111;50.536;19.204;2023-06-10T10:55:25;9.00;9.00;8.00
76304;PMS7003;65111;50.536;19.204;2023-06-10T10:58:05;10.00;10.00;8.50
76304;PMS7003;65111;50.536;19.204;2023-06-10T11:00:33;9.50;9.50;7.50
76304;PMS7003;65111;50.536;19.204;2023-06-10T11:10:59;9.00;9.00;7.00
76304;PMS7003;65111;50.536;19.204;2023-06-10T11:13:26;9.00;9.00;6.00
76304;PMS7003;65111;50.536;19.204;2023-06-10T11:15:57;13.00;11.00;9.00
76304;PMS7003;65111;50.536;19.204;2023-06-10T11:18:24;9.00;9.00;7.00
76304;PMS7003;65111;50.536;19.204;2023-06-10T11:21:02;9.00;7.00;7.00
76304;PMS7003;65111;50.536;19.204;2023-06-10T11:23:48;12.00;12.00;9.00
76304;PMS7003;65111;50.536;19.204;2023-06-10T11:31:26;13.00;11.00;9.00
76304;PMS7003;65111;50.536;19.204;2023-06-10T11:36:26;10.00;10.00;9.00
76304;PMS7003;65111;50.536;19.204;2023-06-10T11:38:57;13.00;12.50;10.00
76304;PMS7003;65111;50.536;19.204;2023-06-10T11:41:25;13.00;13.00;9.00
76304;PMS7003;65111;50.536;19.204;2023-06-10T11:43:52;11.50;11.50;8.00
76304;PMS7003;65111;50.536;19.204;2023-06-10T11:46:22;14.00;14.00;12.00
76304;PMS7003;65111;50.536;19.204;2023-06-10T11:48:53;10.00;9.00;8.00
76304;PMS7003;65111;50.536;19.204;2023-06-10T11:51:31;10.50;10.50;9.00
76304;PMS7003;65111;50.536;19.204;2023-06-10T11:53:59;11.00;11.00;9.00
76304;PMS7003;65111;50.536;19.204;2023-06-10T11:56:25;11.00;11.00;9.50
76304;PMS7003;65111;50.536;19.204;2023-06-10T11:58:53;13.00;11.00;9.00
76304;PMS7003;65111;50.536;19.204;2023-06-10T12:01:21;12.00;12.00;8.00
76304;PMS7003;65111;50.536;19.204;2023-06-10T12:03:55;13.00;13.00;10.00
76304;PMS7003;65111;50.536;19.204;2023-06-10T12:11:58;10.00;10.00;9.00
76304;PMS7003;65111;50.536;19.204;2023-06-10T12:17:20;13.00;11.00;9.00
76304;PMS7003;65111;50.536;19.204;2023-06-10T12:19:48;13.00;13.00;10.00
76304;PMS7003;65111;50.536;19.204;2023-06-10T12:22:15;10.00;10.00;8.00
76304;PMS7003;65111;50.536;19.204;2023-06-10T12:24:45;13.00;13.00;10.00
76304;PMS7003;65111;50.536;19.204;2023-06-10T12:27:22;14.00;14.00;10.00
76304;PMS7003;65111;50.536;19.204;2023-06-10T12:29:52;11.00;11.00;8.00
76304;PMS7003;65111;50.536;19.204;2023-06-10T12:32:19;14.00;13.50;10.50
76304;PMS7003;65111;50.536;19.204;2023-06-10T12:34:48;13.00;13.00;9.00
76304;PMS7003;65111;50.536;19.204;2023-06-10T12:37:14;13.00;13.00;9.00
76304;PMS7003;65111;50.536;19.204;2023-06-10T12:39:40;15.00;14.00;10.00
76304;PMS7003;65111;50.536;19.204;2023-06-10T12:42:12;15.00;15.00;11.00
76304;PMS7003;65111;50.536;19.204;2023-06-10T12:44:39;13.00;13.00;10.00
76304;PMS7003;65111;50.536;19.204;2023-06-10T12:49:34;16.00;16.00;12.00
76304;PMS7003;65111;50.536;19.204;2023-06-10T12:52:00;16.00;15.00;10.50
76304;PMS7003;65111;50.536;19.204;2023-06-10T12:54:26;16.00;16.00;12.00
76304;PMS7003;65111;50.536;19.204;2023-06-10T12:56:53;15.00;15.00;12.50
76304;PMS7003;65111;50.536;19.204;2023-06-10T12:59:18;13.00;13.00;10.00
76304;PMS7003;65111;50.536;19.204;2023-06-10T13:01:49;13.00;13.00;10.00
76304;PMS7003;65111;50.536;19.204;2023-06-10T13:04:19;14.00;14.00;11.00
76304;PMS7003;65111;50.536;19.204;2023-06-10T13:06:47;20.00;19.00;14.00
76304;PMS7003;65111;50.536;19.204;2023-06-10T13:09:14;18.00;17.00;13.00
76304;PMS7003;65111;50.536;19.204;2023-06-10T13:11:41;13.00;13.00;9.50
76304;PMS7003;65111;50.536;19.204;2023-06-10T13:14:08;14.50;14.50;10.50
76304;PMS7003;65111;50.536;19.204;2023-06-10T13:16:35;16.00;14.00;11.00
76304;PMS7003;65111;50.536;19.204;2023-06-10T13:19:04;13.00;13.00;11.00
76304;PMS7003;65111;50.536;19.204;2023-06-10T13:21:31;13.00;13.00;9.00
76304;PMS7003;65111;50.536;19.204;2023-06-10T13:23:59;12.50;11.50;8.50
76304;PMS7003;65111;50.536;19.204;2023-06-10T13:26:26;13.00;11.00;8.50
76304;PMS7003;65111;50.536;19.204;2023-06-10T13:31:18;14.00;11.00;10.00
76304;PMS7003;65111;50.536;19.204;2023-06-10T13:33:46;12.00;10.00;10.00
76304;PMS7003;65111;50.536;19.204;2023-06-10T13:36:12;11.00;10.00;8.00
76304;PMS7003;65111;50.536;19.204;2023-06-10T13:38:38;10.00;10.00;8.00
76304;PMS7003;65111;50.536;19.204;2023-06-10T13:41:04;14.00;14.00;10.00
76304;PMS7003;65111;50.536;19.204;2023-06-10T13:43:31;14.00;13.50;10.00
76304;PMS7003;65111;50.536;19.204;2023-06-10T13:45:57;15.33;14.00;12.00
76304;PMS7003;65111;50.536;19.204;2023-06-10T13:48:23;15.00;15.00;11.00
76304;PMS7003;65111;50.536;19.204;2023-06-10T13:50:49;15.00;14.00;12.00
76304;PMS7003;65111;50.536;19.204;2023-06-10T13:53:15;16.50;16.00;12.50
76304;PMS7003;65111;50.536;19.204;2023-06-10T13:55:41;16.00;16.00;11.00
76304;PMS7003;65111;50.536;19.204;2023-06-10T13:58:07;15.50;15.50;10.50
76304;PMS7003;65111;50.536;19.204;2023-06-10T14:00:33;16.00;16.00;13.00
76304;PMS7003;65111;50.536;19.204;2023-06-10T14:02:59;17.00;15.00;12.00
76304;PMS7003;65111;50.536;19.204;2023-06-10T14:05:25;13.00;12.50;9.50
76304;PMS7003;65111;50.536;19.204;2023-06-10T14:07:51;12.50;12.50;9.00
76304;PMS7003;65111;50.536;19.204;2023-06-10T14:10:18;18.50;16.00;12.00
76304;PMS7003;65111;50.536;19.204;2023-06-10T14:12:44;14.00;12.00;10.00
76304;PMS7003;65111;50.536;19.204;2023-06-10T14:15:10;14.00;13.00;11.00